sensor_id;sensor_type;location;lat;lon;timestamp;temperature;humidity
21445;DHT22;10883;51.946;20.140;2023-06-22T00:02:13;18.70;99.90
21445;DHT22;10883;51.946;20.140;2023-06-22T00:04:39;18.80;99.90
21445;DHT22;10883;51.946;20.140;2023-06-22T00:07:05;18.80;99.90
21445;DHT22;10883;51.946;20.140;2023-06-22T00:09:31;18.60;99.90
21445;DHT22;10883;51.946;20.140;2023-06-22T00:11:58;18.50;99.90
21445;DHT22;10883;51.946;20.140;2023-06-22T00:14:23;18.40;99.90
21445;DHT22;10883;51.946;20.140;2023-06-22T00:16:49;18.30;99.90
21445;DHT22;10883;51.946;20.140;2023-06-22T00:19:23;18.40;99.90
21445;DHT22;10883;51.946;20.140;2023-06-22T00:21:52;18.40;99.90
21445;DHT22;10883;51.946;20.140;2023-06-22T00:24:21;18.30;99.90
21445;DHT22;10883;51.946;20.140;2023-06-22T00:26:50;18.30;99.90
21445;DHT22;10883;51.946;20.140;2023-06-22T00:29:16;18.30;99.90
21445;DHT22;10883;51.946;20.140;2023-06-22T00:31:42;18.40;99.90
21445;DHT22;10883;51.946;20.140;2023-06-22T00:34:08;18.50;99.90
21445;DHT22;10883;51.946;20.140;2023-06-22T00:36:35;18.50;99.90
21445;DHT22;10883;51.946;20.140;2023-06-22T00:39:01;18.40;99.90
21445;DHT22;10883;51.946;20.140;2023-06-22T00:41:27;18.20;99.90
21445;DHT22;10883;51.946;20.140;2023-06-22T00:43:56;18.00;99.90
21445;DHT22;10883;51.946;20.140;2023-06-22T00:46:23;17.90;99.90
21445;DHT22;10883;51.946;20.140;2023-06-22T00:48:49;17.80;99.90
21445;DHT22;10883;51.946;20.140;2023-06-22T00:51:15;17.90;99.90
21445;DHT22;10883;51.946;20.140;2023-06-22T00:53:41;17.90;99.90
21445;DHT22;10883;51.946;20.140;2023-06-22T00:56:09;17.90;99.90
21445;DHT22;10883;51.946;20.140;2023-06-22T00:58:37;18.10;99.90
21445;DHT22;10883;51.946;20.140;2023-06-22T01:01:07;18.50;99.90
21445;DHT22;10883;51.946;20.140;2023-06-22T01:03:33;18.70;99.90
21445;DHT22;10883;51.946;20.140;2023-06-22T01:06:07;19.00;99.90
21445;DHT22;10883;51.946;20.140;2023-06-22T01:09:21;19.10;99.90
21445;DHT22;10883;51.946;20.140;2023-06-22T01:11:41;19.20;99.90
21445;DHT22;10883;51.946;20.140;2023-06-22T01:14:18;19.20;99.90
21445;DHT22;10883;51.946;20.140;2023-06-22T01:16:47;19.20;99.90
21445;DHT22;10883;51.946;20.140;2023-06-22T01:22:00;19.30;99.90
21445;DHT22;10883;51.946;20.140;2023-06-22T01:24:40;19.50;99.90
21445;DHT22;10883;51.946;20.140;2023-06-22T01:29:55;19.60;99.90
21445;DHT22;10883;51.946;20.140;2023-06-22T01:32:31;19.50;99.90
21445;DHT22;10883;51.946;20.140;2023-06-22T01:35:01;19.50;99.90
21445;DHT22;10883;51.946;20.140;2023-06-22T01:37:30;19.50;99.90
21445;DHT22;10883;51.946;20.140;2023-06-22T01:39:58;19.50;99.90
21445;DHT22;10883;51.946;20.140;2023-06-22T01:42:25;19.40;99.90
21445;DHT22;10883;51.946;20.140;2023-06-22T01:44:53;19.30;99.90
21445;DHT22;10883;51.946;20.140;2023-06-22T01:47:23;19.30;99.90
21445;DHT22;10883;51.946;20.140;2023-06-22T01:49:50;19.20;99.90
21445;DHT22;10883;51.946;20.140;2023-06-22T01:52:19;19.20;99.90
21445;DHT22;10883;51.946;20.140;2023-06-22T01:54:47;19.10;99.90
21445;DHT22;10883;51.946;20.140;2023-06-22T01:57:13;19.20;99.90
21445;DHT22;10883;51.946;20.140;2023-06-22T02:00:04;19.20;99.90
21445;DHT22;10883;51.946;20.140;2023-06-22T02:02:46;19.10;99.90
21445;DHT22;10883;51.946;20.140;2023-06-22T02:05:17;19.10;99.90
21445;DHT22;10883;51.946;20.140;2023-06-22T02:10:20;19.10;99.90
21445;DHT22;10883;51.946;20.140;2023-06-22T02:12:48;19.10;99.90
21445;DHT22;10883;51.946;20.140;2023-06-22T02:15:14;19.00;99.90
21445;DHT22;10883;51.946;20.140;2023-06-22T02:17:40;18.90;99.90
21445;DHT22;10883;51.946;20.140;2023-06-22T02:20:13;18.80;99.90
21445;DHT22;10883;51.946;20.140;2023-06-22T02:22:39;18.90;99.90
21445;DHT22;10883;51.946;20.140;2023-06-22T02:25:05;18.90;99.90
21445;DHT22;10883;51.946;20.140;2023-06-22T02:27:30;18.90;99.90
21445;DHT22;10883;51.946;20.140;2023-06-22T02:29:57;18.80;99.90
21445;DHT22;10883;51.946;20.140;2023-06-22T02:32:23;18.80;99.90
21445;DHT22;10883;51.946;20.140;2023-06-22T02:34:48;18.80;99.90
21445;DHT22;10883;51.946;20.140;2023-06-22T02:37:14;18.70;99.90
21445;DHT22;10883;51.946;20.140;2023-06-22T02:39:40;18.70;99.90
21445;DHT22;10883;51.946;20.140;2023-06-22T02:42:06;18.70;99.90
21445;DHT22;10883;51.946;20.140;2023-06-22T02:44:32;18.70;99.90
21445;DHT22;10883;51.946;20.140;2023-06-22T02:46:58;18.70;99.90
21445;DHT22;10883;51.946;20.140;2023-06-22T02:49:23;18.60;99.90
21445;DHT22;10883;51.946;20.140;2023-06-22T02:51:50;18.60;99.90
21445;DHT22;10883;51.946;20.140;2023-06-22T02:54:16;18.70;99.90
21445;DHT22;10883;51.946;20.140;2023-06-22T02:56:42;18.60;99.90
21445;DHT22;10883;51.946;20.140;2023-06-22T02:59:11;18.60;99.90
21445;DHT22;10883;51.946;20.140;2023-06-22T03:01:37;18.60;99.90
21445;DHT22;10883;51.946;20.140;2023-06-22T03:04:06;18.60;99.90
21445;DHT22;10883;51.946;20.140;2023-06-22T03:06:33;18.60;99.90
21445;DHT22;10883;51.946;20.140;2023-06-22T03:09:00;18.60;99.90
21445;DHT22;10883;51.946;20.140;2023-06-22T03:11:26;18.70;99.90
21445;DHT22;10883;51.946;20.140;2023-06-22T03:13:52;18.70;99.90
21445;DHT22;10883;51.946;20.140;2023-06-22T03:16:19;18.70;99.90
21445;DHT22;10883;51.946;20.140;2023-06-22T03:18:45;18.70;99.90
21445;DHT22;10883;51.946;20.140;2023-06-22T03:21:11;18.70;99.90
21445;DHT22;10883;51.946;20.140;2023-06-22T03:23:36;18.70;99.90
21445;DHT22;10883;51.946;20.140;2023-06-22T03:26:02;18.70;99.90
21445;DHT22;10883;51.946;20.140;2023-06-22T03:28:29;18.70;99.90
21445;DHT22;10883;51.946;20.140;2023-06-22T03:30:57;18.70;99.90
21445;DHT22;10883;51.946;20.140;2023-06-22T03:33:23;18.70;99.90
21445;DHT22;10883;51.946;20.140;2023-06-22T03:35:49;18.70;99.90
21445;DHT22;10883;51.946;20.140;2023-06-22T03:38:16;18.70;99.90
21445;DHT22;10883;51.946;20.140;2023-06-22T03:40:42;18.70;99.90
21445;DHT22;10883;51.946;20.140;2023-06-22T03:43:07;18.80;99.90
21445;DHT22;10883;51.946;20.140;2023-06-22T03:45:33;18.80;99.90
21445;DHT22;10883;51.946;20.140;2023-06-22T03:48:00;18.90;99.90
21445;DHT22;10883;51.946;20.140;2023-06-22T03:50:26;18.90;99.90
21445;DHT22;10883;51.946;20.140;2023-06-22T03:52:51;18.90;99.90
21445;DHT22;10883;51.946;20.140;2023-06-22T03:55:19;19.00;99.90
21445;DHT22;10883;51.946;20.140;2023-06-22T03:57:45;19.00;99.90
21445;DHT22;10883;51.946;20.140;2023-06-22T04:00:11;19.10;99.90
21445;DHT22;10883;51.946;20.140;2023-06-22T04:02:37;19.10;99.90
21445;DHT22;10883;51.946;20.140;2023-06-22T04:05:04;19.20;99.90
21445;DHT22;10883;51.946;20.140;2023-06-22T04:07:29;19.20;99.90
21445;DHT22;10883;51.946;20.140;2023-06-22T04:09:55;19.30;99.90
21445;DHT22;10883;51.946;20.140;2023-06-22T04:12:21;19.40;99.90
21445;DHT22;10883;51.946;20.140;2023-06-22T04:14:47;19.40;99.90
21445;DHT22;10883;51.946;20.140;2023-06-22T04:17:12;19.50;99.90
21445;DHT22;10883;51.946;20.140;2023-06-22T04:19:40;19.50;99.90
21445;DHT22;10883;51.946;20.140;2023-06-22T04:22:06;19.50;99.90
21445;DHT22;10883;51.946;20.140;2023-06-22T04:24:35;19.60;99.90
21445;DHT22;10883;51.946;20.140;2023-06-22T04:27:01;19.70;99.90
21445;DHT22;10883;51.946;20.140;2023-06-22T04:29:29;19.80;99.90
21445;DHT22;10883;51.946;20.140;2023-06-22T04:31:59;19.90;99.90
21445;DHT22;10883;51.946;20.140;2023-06-22T04:34:29;19.90;99.90
21445;DHT22;10883;51.946;20.140;2023-06-22T04:36:55;19.90;99.90
21445;DHT22;10883;51.946;20.140;2023-06-22T04:39:21;20.00;99.90
21445;DHT22;10883;51.946;20.140;2023-06-22T04:41:47;20.10;99.90
21445;DHT22;10883;51.946;20.140;2023-06-22T04:44:17;20.10;99.90
21445;DHT22;10883;51.946;20.140;2023-06-22T04:47:07;20.20;99.90
21445;DHT22;10883;51.946;20.140;2023-06-22T04:49:34;20.20;99.90
21445;DHT22;10883;51.946;20.140;2023-06-22T04:52:03;20.30;99.90
21445;DHT22;10883;51.946;20.140;2023-06-22T04:54:29;20.40;99.90
21445;DHT22;10883;51.946;20.140;2023-06-22T04:56:59;20.60;99.90
21445;DHT22;10883;51.946;20.140;2023-06-22T04:59:29;20.60;99.90
21445;DHT22;10883;51.946;20.140;2023-06-22T05:01:59;20.70;99.90
21445;DHT22;10883;51.946;20.140;2023-06-22T05:04:26;20.70;99.90
21445;DHT22;10883;51.946;20.140;2023-06-22T05:06:54;20.80;99.90
21445;DHT22;10883;51.946;20.140;2023-06-22T05:09:20;20.80;99.90
21445;DHT22;10883;51.946;20.140;2023-06-22T05:11:46;21.00;99.90
21445;DHT22;10883;51.946;20.140;2023-06-22T05:14:12;21.00;99.90
21445;DHT22;10883;51.946;20.140;2023-06-22T05:16:40;21.10;99.90
21445;DHT22;10883;51.946;20.140;2023-06-22T05:19:06;21.10;99.90
21445;DHT22;10883;51.946;20.140;2023-06-22T05:21:32;21.20;99.90
21445;DHT22;10883;51.946;20.140;2023-06-22T05:23:58;21.40;99.90
21445;DHT22;10883;51.946;20.140;2023-06-22T05:26:29;21.50;99.90
21445;DHT22;10883;51.946;20.140;2023-06-22T05:28:55;21.50;99.90
21445;DHT22;10883;51.946;20.140;2023-06-22T05:31:22;21.50;99.90
21445;DHT22;10883;51.946;20.140;2023-06-22T05:33:49;21.60;99.90
21445;DHT22;10883;51.946;20.140;2023-06-22T05:36:15;21.70;99.90
21445;DHT22;10883;51.946;20.140;2023-06-22T05:38:41;21.80;99.90
21445;DHT22;10883;51.946;20.140;2023-06-22T05:41:07;21.80;99.90
21445;DHT22;10883;51.946;20.140;2023-06-22T05:43:34;21.90;99.90
21445;DHT22;10883;51.946;20.140;2023-06-22T05:46:03;22.10;99.90
21445;DHT22;10883;51.946;20.140;2023-06-22T05:48:29;22.10;99.90
21445;DHT22;10883;51.946;20.140;2023-06-22T05:50:55;22.20;99.90
21445;DHT22;10883;51.946;20.140;2023-06-22T05:53:20;22.40;99.90
21445;DHT22;10883;51.946;20.140;2023-06-22T05:55:46;22.50;99.90
21445;DHT22;10883;51.946;20.140;2023-06-22T05:58:12;22.70;99.90
21445;DHT22;10883;51.946;20.140;2023-06-22T06:00:39;22.90;99.90
21445;DHT22;10883;51.946;20.140;2023-06-22T06:03:05;23.00;99.90
21445;DHT22;10883;51.946;20.140;2023-06-22T06:05:32;23.00;99.90
21445;DHT22;10883;51.946;20.140;2023-06-22T06:07:59;23.10;99.90
21445;DHT22;10883;51.946;20.140;2023-06-22T06:10:25;23.20;99.90
21445;DHT22;10883;51.946;20.140;2023-06-22T06:12:51;23.30;99.90
21445;DHT22;10883;51.946;20.140;2023-06-22T06:15:17;23.40;99.90
21445;DHT22;10883;51.946;20.140;2023-06-22T06:17:47;23.40;99.90
21445;DHT22;10883;51.946;20.140;2023-06-22T06:20:13;23.50;99.90
21445;DHT22;10883;51.946;20.140;2023-06-22T06:22:39;23.70;99.90
21445;DHT22;10883;51.946;20.140;2023-06-22T06:25:05;23.90;99.90
21445;DHT22;10883;51.946;20.140;2023-06-22T06:27:31;24.00;99.90
21445;DHT22;10883;51.946;20.140;2023-06-22T06:29:57;24.20;99.90
21445;DHT22;10883;51.946;20.140;2023-06-22T06:32:23;24.50;99.90
21445;DHT22;10883;51.946;20.140;2023-06-22T06:34:49;24.60;99.90
21445;DHT22;10883;51.946;20.140;2023-06-22T06:37:15;24.70;99.90
21445;DHT22;10883;51.946;20.140;2023-06-22T06:39:41;24.80;99.90
21445;DHT22;10883;51.946;20.140;2023-06-22T06:42:07;24.80;99.90
21445;DHT22;10883;51.946;20.140;2023-06-22T06:44:32;24.60;99.90
21445;DHT22;10883;51.946;20.140;2023-06-22T06:46:58;24.50;99.90
21445;DHT22;10883;51.946;20.140;2023-06-22T06:49:24;24.60;99.90
21445;DHT22;10883;51.946;20.140;2023-06-22T06:51:50;24.60;99.90
21445;DHT22;10883;51.946;20.140;2023-06-22T06:54:16;24.60;99.90
21445;DHT22;10883;51.946;20.140;2023-06-22T06:56:41;24.70;99.90
21445;DHT22;10883;51.946;20.140;2023-06-22T06:59:16;24.90;99.90
21445;DHT22;10883;51.946;20.140;2023-06-22T07:01:42;25.00;99.90
21445;DHT22;10883;51.946;20.140;2023-06-22T07:04:10;25.20;99.90
21445;DHT22;10883;51.946;20.140;2023-06-22T07:06:36;25.20;99.90
21445;DHT22;10883;51.946;20.140;2023-06-22T07:09:01;25.10;99.90
21445;DHT22;10883;51.946;20.140;2023-06-22T07:11:28;25.10;99.90
21445;DHT22;10883;51.946;20.140;2023-06-22T07:13:54;25.30;99.90
21445;DHT22;10883;51.946;20.140;2023-06-22T07:16:20;25.50;99.90
21445;DHT22;10883;51.946;20.140;2023-06-22T07:18:46;25.60;99.90
21445;DHT22;10883;51.946;20.140;2023-06-22T07:21:12;25.70;99.90
21445;DHT22;10883;51.946;20.140;2023-06-22T07:23:38;25.80;99.90
21445;DHT22;10883;51.946;20.140;2023-06-22T07:26:03;25.90;99.90
21445;DHT22;10883;51.946;20.140;2023-06-22T07:28:31;26.10;99.90
21445;DHT22;10883;51.946;20.140;2023-06-22T07:31:02;26.10;99.90
21445;DHT22;10883;51.946;20.140;2023-06-22T07:33:29;26.10;99.90
21445;DHT22;10883;51.946;20.140;2023-06-22T07:35:55;26.10;99.90
21445;DHT22;10883;51.946;20.140;2023-06-22T07:38:21;26.00;99.90
21445;DHT22;10883;51.946;20.140;2023-06-22T07:40:47;26.10;99.90
21445;DHT22;10883;51.946;20.140;2023-06-22T07:43:13;26.30;99.90
21445;DHT22;10883;51.946;20.140;2023-06-22T07:45:38;26.50;99.90
21445;DHT22;10883;51.946;20.140;2023-06-22T07:48:06;26.60;99.90
21445;DHT22;10883;51.946;20.140;2023-06-22T07:50:32;26.80;99.90
21445;DHT22;10883;51.946;20.140;2023-06-22T07:52:58;26.90;99.90
21445;DHT22;10883;51.946;20.140;2023-06-22T07:55:24;27.00;99.90
21445;DHT22;10883;51.946;20.140;2023-06-22T07:57:50;27.10;99.90
21445;DHT22;10883;51.946;20.140;2023-06-22T08:00:17;27.30;99.90
21445;DHT22;10883;51.946;20.140;2023-06-22T08:02:45;27.20;99.90
21445;DHT22;10883;51.946;20.140;2023-06-22T08:05:11;27.50;99.90
21445;DHT22;10883;51.946;20.140;2023-06-22T08:07:38;27.60;99.90
21445;DHT22;10883;51.946;20.140;2023-06-22T08:10:05;27.50;99.90
21445;DHT22;10883;51.946;20.140;2023-06-22T08:12:31;27.60;99.90
21445;DHT22;10883;51.946;20.140;2023-06-22T08:14:57;27.70;99.90
21445;DHT22;10883;51.946;20.140;2023-06-22T08:17:26;27.90;99.90
21445;DHT22;10883;51.946;20.140;2023-06-22T08:19:52;28.00;99.90
21445;DHT22;10883;51.946;20.140;2023-06-22T08:22:17;28.00;99.90
21445;DHT22;10883;51.946;20.140;2023-06-22T08:24:44;28.00;99.90
21445;DHT22;10883;51.946;20.140;2023-06-22T08:27:10;28.10;99.90
21445;DHT22;10883;51.946;20.140;2023-06-22T08:29:39;28.10;99.90
21445;DHT22;10883;51.946;20.140;2023-06-22T08:32:05;28.00;99.90
21445;DHT22;10883;51.946;20.140;2023-06-22T08:34:31;28.20;99.90
21445;DHT22;10883;51.946;20.140;2023-06-22T08:36:57;28.40;99.90
21445;DHT22;10883;51.946;20.140;2023-06-22T08:39:23;28.40;99.90
21445;DHT22;10883;51.946;20.140;2023-06-22T08:41:48;28.10;97.70
21445;DHT22;10883;51.946;20.140;2023-06-22T08:44:16;28.20;97.90
21445;DHT22;10883;51.946;20.140;2023-06-22T08:46:42;28.10;98.20
21445;DHT22;10883;51.946;20.140;2023-06-22T08:49:08;28.30;98.60
21445;DHT22;10883;51.946;20.140;2023-06-22T08:51:35;28.40;99.60
21445;DHT22;10883;51.946;20.140;2023-06-22T08:54:01;28.60;98.90
21445;DHT22;10883;51.946;20.140;2023-06-22T08:56:27;29.00;99.30
21445;DHT22;10883;51.946;20.140;2023-06-22T08:58:53;29.10;99.60
21445;DHT22;10883;51.946;20.140;2023-06-22T09:01:18;29.10;98.70
21445;DHT22;10883;51.946;20.140;2023-06-22T09:03:45;28.70;94.90
21445;DHT22;10883;51.946;20.140;2023-06-22T09:06:20;28.70;96.30
21445;DHT22;10883;51.946;20.140;2023-06-22T09:08:46;28.70;97.60
21445;DHT22;10883;51.946;20.140;2023-06-22T09:11:12;28.80;95.80
21445;DHT22;10883;51.946;20.140;2023-06-22T09:13:38;29.00;96.10
21445;DHT22;10883;51.946;20.140;2023-06-22T09:16:04;29.20;96.10
21445;DHT22;10883;51.946;20.140;2023-06-22T09:18:30;29.30;96.90
21445;DHT22;10883;51.946;20.140;2023-06-22T09:20:56;29.50;97.20
21445;DHT22;10883;51.946;20.140;2023-06-22T09:23:22;29.60;94.50
21445;DHT22;10883;51.946;20.140;2023-06-22T09:25:47;29.60;96.70
21445;DHT22;10883;51.946;20.140;2023-06-22T09:28:16;29.60;97.10
21445;DHT22;10883;51.946;20.140;2023-06-22T09:30:44;29.70;95.70
21445;DHT22;10883;51.946;20.140;2023-06-22T09:33:10;29.70;94.10
21445;DHT22;10883;51.946;20.140;2023-06-22T09:35:36;29.50;93.70
21445;DHT22;10883;51.946;20.140;2023-06-22T09:38:02;29.60;94.10
21445;DHT22;10883;51.946;20.140;2023-06-22T09:40:28;29.70;92.80
21445;DHT22;10883;51.946;20.140;2023-06-22T09:42:54;29.90;91.90
21445;DHT22;10883;51.946;20.140;2023-06-22T09:45:21;29.80;92.70
21445;DHT22;10883;51.946;20.140;2023-06-22T09:47:46;30.10;92.20
21445;DHT22;10883;51.946;20.140;2023-06-22T09:50:12;30.10;92.60
21445;DHT22;10883;51.946;20.140;2023-06-22T09:52:38;30.20;92.10
21445;DHT22;10883;51.946;20.140;2023-06-22T09:55:04;30.20;91.60
21445;DHT22;10883;51.946;20.140;2023-06-22T09:57:30;30.20;91.00
21445;DHT22;10883;51.946;20.140;2023-06-22T09:59:56;30.20;92.30
21445;DHT22;10883;51.946;20.140;2023-06-22T10:02:21;30.50;91.80
21445;DHT22;10883;51.946;20.140;2023-06-22T10:04:48;30.70;91.40
21445;DHT22;10883;51.946;20.140;2023-06-22T10:07:13;30.80;91.80
21445;DHT22;10883;51.946;20.140;2023-06-22T10:09:40;30.90;91.20
21445;DHT22;10883;51.946;20.140;2023-06-22T10:12:06;31.10;91.30
21445;DHT22;10883;51.946;20.140;2023-06-22T10:14:32;31.40;90.60
21445;DHT22;10883;51.946;20.140;2023-06-22T10:16:57;31.90;91.40
21445;DHT22;10883;51.946;20.140;2023-06-22T10:19:23;32.00;87.00
21445;DHT22;10883;51.946;20.140;2023-06-22T10:21:49;32.00;86.10
21445;DHT22;10883;51.946;20.140;2023-06-22T10:24:15;32.10;92.60
21445;DHT22;10883;51.946;20.140;2023-06-22T10:26:41;32.50;88.70
21445;DHT22;10883;51.946;20.140;2023-06-22T10:29:06;32.60;85.00
21445;DHT22;10883;51.946;20.140;2023-06-22T10:31:32;32.70;88.90
21445;DHT22;10883;51.946;20.140;2023-06-22T10:33:58;32.70;87.50
21445;DHT22;10883;51.946;20.140;2023-06-22T10:36:24;32.70;88.90
21445;DHT22;10883;51.946;20.140;2023-06-22T10:38:50;32.90;87.10
21445;DHT22;10883;51.946;20.140;2023-06-22T10:41:16;33.20;83.70
21445;DHT22;10883;51.946;20.140;2023-06-22T10:43:42;33.30;82.70
21445;DHT22;10883;51.946;20.140;2023-06-22T10:46:09;33.40;81.30
21445;DHT22;10883;51.946;20.140;2023-06-22T10:48:35;33.40;81.00
21445;DHT22;10883;51.946;20.140;2023-06-22T10:51:01;34.40;80.70
21445;DHT22;10883;51.946;20.140;2023-06-22T10:53:27;36.50;77.20
21445;DHT22;10883;51.946;20.140;2023-06-22T10:55:52;38.80;71.20
21445;DHT22;10883;51.946;20.140;2023-06-22T10:58:19;39.60;67.20
21445;DHT22;10883;51.946;20.140;2023-06-22T11:00:45;40.10;65.00
21445;DHT22;10883;51.946;20.140;2023-06-22T11:03:11;41.70;62.30
21445;DHT22;10883;51.946;20.140;2023-06-22T11:05:37;42.90;59.10
21445;DHT22;10883;51.946;20.140;2023-06-22T11:08:03;43.10;59.10
21445;DHT22;10883;51.946;20.140;2023-06-22T11:10:29;43.60;58.30
21445;DHT22;10883;51.946;20.140;2023-06-22T11:12:54;44.30;57.30
21445;DHT22;10883;51.946;20.140;2023-06-22T11:15:22;43.50;56.20
21445;DHT22;10883;51.946;20.140;2023-06-22T11:17:48;43.70;56.40
21445;DHT22;10883;51.946;20.140;2023-06-22T11:20:14;45.40;57.90
21445;DHT22;10883;51.946;20.140;2023-06-22T11:22:40;47.10;54.40
21445;DHT22;10883;51.946;20.140;2023-06-22T11:25:06;46.60;52.20
21445;DHT22;10883;51.946;20.140;2023-06-22T11:27:32;46.30;52.50
21445;DHT22;10883;51.946;20.140;2023-06-22T11:29:58;45.40;52.20
21445;DHT22;10883;51.946;20.140;2023-06-22T11:32:24;46.50;52.80
21445;DHT22;10883;51.946;20.140;2023-06-22T11:34:50;46.70;50.40
21445;DHT22;10883;51.946;20.140;2023-06-22T11:37:16;47.30;51.00
21445;DHT22;10883;51.946;20.140;2023-06-22T11:39:42;48.00;52.90
21445;DHT22;10883;51.946;20.140;2023-06-22T11:42:11;48.70;50.80
21445;DHT22;10883;51.946;20.140;2023-06-22T11:44:37;49.00;50.70
21445;DHT22;10883;51.946;20.140;2023-06-22T11:47:03;48.80;49.20
21445;DHT22;10883;51.946;20.140;2023-06-22T11:49:32;49.40;48.70
21445;DHT22;10883;51.946;20.140;2023-06-22T11:51:58;48.40;48.00
21445;DHT22;10883;51.946;20.140;2023-06-22T11:54:24;48.40;47.50
21445;DHT22;10883;51.946;20.140;2023-06-22T11:56:50;48.90;49.20
21445;DHT22;10883;51.946;20.140;2023-06-22T11:59:15;49.40;46.90
21445;DHT22;10883;51.946;20.140;2023-06-22T12:01:41;49.60;46.70
21445;DHT22;10883;51.946;20.140;2023-06-22T12:04:07;49.60;44.90
21445;DHT22;10883;51.946;20.140;2023-06-22T12:06:38;49.20;45.10
21445;DHT22;10883;51.946;20.140;2023-06-22T12:09:06;48.30;45.80
21445;DHT22;10883;51.946;20.140;2023-06-22T12:11:32;48.00;46.70
21445;DHT22;10883;51.946;20.140;2023-06-22T12:13:58;47.40;46.90
21445;DHT22;10883;51.946;20.140;2023-06-22T12:16:28;47.00;46.30
21445;DHT22;10883;51.946;20.140;2023-06-22T12:18:53;47.40;46.00
21445;DHT22;10883;51.946;20.140;2023-06-22T12:21:19;47.00;48.60
21445;DHT22;10883;51.946;20.140;2023-06-22T12:23:45;47.40;45.90
21445;DHT22;10883;51.946;20.140;2023-06-22T12:26:11;47.20;44.40
21445;DHT22;10883;51.946;20.140;2023-06-22T12:28:36;46.80;46.60
21445;DHT22;10883;51.946;20.140;2023-06-22T12:31:02;47.10;45.60
21445;DHT22;10883;51.946;20.140;2023-06-22T12:33:28;47.50;45.50
21445;DHT22;10883;51.946;20.140;2023-06-22T12:35:56;47.80;44.20
21445;DHT22;10883;51.946;20.140;2023-06-22T12:38:22;47.20;46.20
21445;DHT22;10883;51.946;20.140;2023-06-22T12:40:47;46.40;48.00
21445;DHT22;10883;51.946;20.140;2023-06-22T12:43:15;44.90;48.90
21445;DHT22;10883;51.946;20.140;2023-06-22T12:45:40;44.10;48.80
21445;DHT22;10883;51.946;20.140;2023-06-22T12:48:06;43.00;48.60
21445;DHT22;10883;51.946;20.140;2023-06-22T12:50:32;41.60;51.10
21445;DHT22;10883;51.946;20.140;2023-06-22T12:52:57;40.90;51.50
21445;DHT22;10883;51.946;20.140;2023-06-22T12:55:23;40.00;51.60
21445;DHT22;10883;51.946;20.140;2023-06-22T12:57:49;39.50;53.60
21445;DHT22;10883;51.946;20.140;2023-06-22T13:00:15;39.20;53.00
21445;DHT22;10883;51.946;20.140;2023-06-22T13:02:41;39.10;54.80
21445;DHT22;10883;51.946;20.140;2023-06-22T13:05:08;38.60;56.00
21445;DHT22;10883;51.946;20.140;2023-06-22T13:07:34;39.20;56.50
21445;DHT22;10883;51.946;20.140;2023-06-22T13:10:00;40.70;55.10
21445;DHT22;10883;51.946;20.140;2023-06-22T13:12:25;42.30;53.30
21445;DHT22;10883;51.946;20.140;2023-06-22T13:14:51;43.40;53.50
21445;DHT22;10883;51.946;20.140;2023-06-22T13:17:17;44.00;52.80
21445;DHT22;10883;51.946;20.140;2023-06-22T13:19:43;45.20;51.60
21445;DHT22;10883;51.946;20.140;2023-06-22T13:22:31;45.00;51.20
21445;DHT22;10883;51.946;20.140;2023-06-22T13:24:57;44.20;51.20
21445;DHT22;10883;51.946;20.140;2023-06-22T13:27:23;44.90;51.10
21445;DHT22;10883;51.946;20.140;2023-06-22T13:29:49;45.20;51.40
21445;DHT22;10883;51.946;20.140;2023-06-22T13:32:15;45.50;49.20
21445;DHT22;10883;51.946;20.140;2023-06-22T13:34:41;45.70;51.60
21445;DHT22;10883;51.946;20.140;2023-06-22T13:37:07;46.00;49.20
21445;DHT22;10883;51.946;20.140;2023-06-22T13:39:33;45.70;48.80
21445;DHT22;10883;51.946;20.140;2023-06-22T13:41:58;46.10;49.50
21445;DHT22;10883;51.946;20.140;2023-06-22T13:44:24;46.40;47.90
21445;DHT22;10883;51.946;20.140;2023-06-22T13:46:57;46.30;47.70
21445;DHT22;10883;51.946;20.140;2023-06-22T13:49:23;46.50;48.80
21445;DHT22;10883;51.946;20.140;2023-06-22T13:51:49;46.40;48.90
21445;DHT22;10883;51.946;20.140;2023-06-22T13:54:16;45.80;47.60
21445;DHT22;10883;51.946;20.140;2023-06-22T13:56:42;45.00;48.90
21445;DHT22;10883;51.946;20.140;2023-06-22T13:59:07;44.40;49.70
21445;DHT22;10883;51.946;20.140;2023-06-22T14:01:35;43.70;50.30
21445;DHT22;10883;51.946;20.140;2023-06-22T14:04:01;43.90;48.70
21445;DHT22;10883;51.946;20.140;2023-06-22T14:06:27;43.40;49.00
21445;DHT22;10883;51.946;20.140;2023-06-22T14:08:53;42.70;48.60
21445;DHT22;10883;51.946;20.140;2023-06-22T14:11:19;42.80;48.20
21445;DHT22;10883;51.946;20.140;2023-06-22T14:13:45;42.90;48.30
21445;DHT22;10883;51.946;20.140;2023-06-22T14:16:10;43.40;49.50
21445;DHT22;10883;51.946;20.140;2023-06-22T14:18:36;43.50;49.70
21445;DHT22;10883;51.946;20.140;2023-06-22T14:21:02;43.90;47.70
21445;DHT22;10883;51.946;20.140;2023-06-22T14:23:28;44.00;47.80
21445;DHT22;10883;51.946;20.140;2023-06-22T14:25:53;43.50;46.90
21445;DHT22;10883;51.946;20.140;2023-06-22T14:28:19;43.00;47.20
21445;DHT22;10883;51.946;20.140;2023-06-22T14:30:45;42.10;49.00
21445;DHT22;10883;51.946;20.140;2023-06-22T14:33:12;41.50;49.10
21445;DHT22;10883;51.946;20.140;2023-06-22T14:35:38;40.20;50.90
21445;DHT22;10883;51.946;20.140;2023-06-22T14:38:03;39.10;52.70
21445;DHT22;10883;51.946;20.140;2023-06-22T14:40:29;38.30;51.00
21445;DHT22;10883;51.946;20.140;2023-06-22T14:42:55;37.30;51.90
21445;DHT22;10883;51.946;20.140;2023-06-22T14:45:22;36.80;54.30
21445;DHT22;10883;51.946;20.140;2023-06-22T14:47:48;36.80;53.70
21445;DHT22;10883;51.946;20.140;2023-06-22T14:50:14;36.30;54.90
21445;DHT22;10883;51.946;20.140;2023-06-22T14:52:40;35.80;57.00
21445;DHT22;10883;51.946;20.140;2023-06-22T14:55:06;35.40;56.60
21445;DHT22;10883;51.946;20.140;2023-06-22T14:57:32;34.90;58.20
21445;DHT22;10883;51.946;20.140;2023-06-22T14:59:58;34.40;60.80
21445;DHT22;10883;51.946;20.140;2023-06-22T15:02:24;34.10;60.90
21445;DHT22;10883;51.946;20.140;2023-06-22T15:04:50;33.80;59.40
21445;DHT22;10883;51.946;20.140;2023-06-22T15:07:17;33.50;60.00
21445;DHT22;10883;51.946;20.140;2023-06-22T15:09:43;33.30;62.00
21445;DHT22;10883;51.946;20.140;2023-06-22T15:12:10;32.90;60.30
21445;DHT22;10883;51.946;20.140;2023-06-22T15:14:39;32.60;60.70
21445;DHT22;10883;51.946;20.140;2023-06-22T15:17:06;32.50;62.60
21445;DHT22;10883;51.946;20.140;2023-06-22T15:19:34;32.20;62.80
21445;DHT22;10883;51.946;20.140;2023-06-22T15:22:01;32.00;62.20